createdAt,value
2019-06-07T00:03:32.232Z,98773.77
2019-06-07T00:08:37.871Z,98766.24
2019-06-07T00:13:43.176Z,98771.64
2019-06-07T00:18:48.470Z,98771.86
2019-06-07T00:23:54.416Z,98774.12
2019-06-07T00:29:02.616Z,98769.40
2019-06-07T00:34:10.319Z,98762.59
2019-06-07T00:39:20.298Z,98751.16
2019-06-07T00:44:23.494Z,98738.34
2019-06-07T00:49:40.339Z,98744.45
2019-06-07T00:54:37.993Z,98756.22
2019-06-07T00:59:43.120Z,98761.52
2019-06-07T01:04:48.548Z,98763.75
2019-06-07T01:09:53.970Z,98756.64
2019-06-07T01:14:59.194Z,98760.70
2019-06-07T01:20:06.407Z,98760.36
2019-06-07T01:25:13.753Z,98756.52
2019-06-07T01:30:23.269Z,98756.96
2019-06-07T01:35:26.964Z,98760.16
2019-06-07T01:40:33.777Z,98767.27
2019-06-07T01:45:39.956Z,98760.56
2019-06-07T01:50:45.472Z,98751.50
2019-06-07T01:55:51.073Z,98739.88
2019-06-07T02:00:56.418Z,98750.73
2019-06-07T02:06:01.766Z,98713.14
2019-06-07T02:11:07.244Z,98729.48
2019-06-07T02:16:14.625Z,98749.94
2019-06-07T02:21:23.151Z,98755.09
2019-06-07T02:26:30.009Z,98746.70
2019-06-07T02:31:39.068Z,98736.39
2019-06-07T02:36:41.898Z,98747.91
2019-06-07T02:41:47.573Z,98745.44
2019-06-07T02:46:52.847Z,98740.09
2019-06-07T02:51:58.224Z,98757.17
2019-06-07T02:57:05.110Z,98769.16
2019-06-07T03:02:10.271Z,98776.87
2019-06-07T03:07:17.580Z,98778.62
2019-06-07T03:12:23.501Z,98773.56
2019-06-07T03:17:47.921Z,98767.86
2019-06-07T03:22:53.430Z,98768.69
2019-06-07T03:27:58.836Z,98777.03
2019-06-07T03:33:04.296Z,98785.98
2019-06-07T03:38:09.733Z,98780.27
2019-06-07T03:43:14.892Z,98782.11
2019-06-07T03:48:20.539Z,98775.80
2019-06-07T03:53:29.211Z,98777.69
2019-06-07T03:58:44.629Z,98781.75
2019-06-07T04:03:46.972Z,98775.49
2019-06-07T04:08:48.487Z,98786.67
2019-06-07T04:13:53.834Z,98808.17
2019-06-07T04:18:59.011Z,98809.27
2019-06-07T04:24:04.515Z,98807.97
2019-06-07T04:29:32.245Z,98807.48
2019-06-07T04:34:16.654Z,98808.23
2019-06-07T04:39:23.670Z,98805.25
2019-06-07T04:44:28.992Z,98800.14
2019-06-07T04:49:39.227Z,98791.42
2019-06-07T04:54:45.845Z,98799.27
2019-06-07T05:00:33.746Z,98791.97
2019-06-07T05:04:56.895Z,98798.08
2019-06-07T05:10:02.491Z,98805.47
2019-06-07T05:15:08.029Z,98804.66
2019-06-07T05:20:14.261Z,98795.31
2019-06-07T05:25:19.645Z,98792.38
2019-06-07T05:35:44.806Z,98797.04
2019-06-07T05:40:50.030Z,98800.59
2019-06-07T05:45:55.494Z,98806.72
2019-06-07T05:51:00.819Z,98793.27
2019-06-07T05:56:06.438Z,98806.64
2019-06-07T06:01:41.999Z,98800.16
2019-06-07T06:06:19.533Z,98795.70
2019-06-07T06:11:42.973Z,98797.77
2019-06-07T06:16:31.963Z,98804.53
2019-06-07T06:21:38.535Z,98799.61
2019-06-07T06:26:51.189Z,98797.81
2019-06-07T06:32:39.444Z,98811.06
2019-06-07T06:36:58.617Z,98814.69
2019-06-07T06:42:04.044Z,98807.74
2019-06-07T06:47:09.139Z,98815.27
2019-06-07T06:52:14.349Z,98815.08
2019-06-07T06:57:21.985Z,98822.43
2019-06-07T07:02:28.785Z,98824.28
2019-06-07T07:07:36.239Z,98831.09
2019-06-07T07:12:42.920Z,98842.95
2019-06-07T07:18:00.683Z,98836.30
2019-06-07T07:22:57.077Z,98828.13
2019-06-07T07:28:02.677Z,98814.95
2019-06-07T07:33:07.946Z,98815.88
2019-06-07T07:38:15.009Z,98820.92
2019-06-07T07:43:22.135Z,98828.75
2019-06-07T07:48:27.310Z,98835.45
2019-06-07T07:53:48.583Z,98830.98
2019-06-07T07:58:41.840Z,98820.23
2019-06-07T08:03:48.157Z,98828.98
2019-06-07T08:08:57.029Z,98837.25
2019-06-07T08:14:05.180Z,98841.59
2019-06-07T08:19:14.754Z,98843.15
2019-06-07T08:24:20.008Z,98844.22
2019-06-07T08:29:43.844Z,98846.17
2019-06-07T08:34:35.006Z,98847.00
2019-06-07T08:39:41.664Z,98845.75
2019-06-07T08:44:47.267Z,98852.97
2019-06-07T08:49:59.606Z,98854.62
2019-06-07T08:55:04.921Z,98854.35
2019-06-07T09:00:42.561Z,98838.48
2019-06-07T09:05:20.887Z,98838.08
2019-06-07T09:10:26.487Z,98843.13
2019-06-07T09:15:31.875Z,98840.63
2019-06-07T09:20:51.261Z,98835.19
2019-06-07T09:26:07.917Z,98842.45
2019-06-07T09:31:10.386Z,98836.97
2019-06-07T09:36:14.921Z,98835.37
2019-06-07T09:41:21.664Z,98831.48
2019-06-07T09:46:27.229Z,98817.06
2019-06-07T09:51:32.361Z,98815.36
2019-06-07T09:56:39.237Z,98822.73
2019-06-07T10:01:44.582Z,98815.09
2019-06-07T10:06:50.563Z,98812.80
2019-06-07T10:11:58.207Z,98820.63
2019-06-07T10:17:03.437Z,98811.13
2019-06-07T10:22:09.710Z,98813.33
2019-06-07T10:27:15.010Z,98815.10
2019-06-07T10:32:20.293Z,98810.84
2019-06-07T10:37:25.873Z,98809.59
2019-06-07T10:42:34.419Z,98807.61
2019-06-07T10:47:39.708Z,98792.93
2019-06-07T10:52:44.855Z,98783.50
2019-06-07T10:57:50.941Z,98779.92
2019-06-07T11:02:56.541Z,98782.61
2019-06-07T11:08:01.779Z,98771.78
2019-06-07T11:13:08.248Z,98765.48
2019-06-07T11:18:14.466Z,98748.09
2019-06-07T11:23:21.032Z,98752.52
2019-06-07T11:28:28.205Z,98745.58
2019-06-07T11:33:33.427Z,98747.60
2019-06-07T11:38:40.990Z,98748.28
2019-06-07T11:43:48.571Z,98730.61
2019-06-07T11:48:53.902Z,98733.77
2019-06-07T11:53:59.044Z,98730.45
2019-06-07T11:59:04.362Z,98723.34
2019-06-07T12:04:09.606Z,98719.95
2019-06-07T12:09:16.670Z,98710.67
2019-06-07T12:14:21.800Z,98703.58
2019-06-07T12:19:27.082Z,98692.17
2019-06-07T12:24:32.838Z,98689.85
2019-06-07T12:29:38.003Z,98678.55
2019-06-07T12:34:45.758Z,98678.03
2019-06-07T12:39:51.052Z,98670.08
2019-06-07T12:44:57.021Z,98668.13
2019-06-07T12:50:02.445Z,98657.98
2019-06-07T12:55:07.831Z,98665.44
2019-06-07T13:00:16.139Z,98657.88
2019-06-07T13:05:23.883Z,98647.14
2019-06-07T13:10:32.073Z,98642.11
2019-06-07T13:15:37.262Z,98622.53
2019-06-07T13:20:44.682Z,98626.02
2019-06-07T13:25:50.085Z,98632.81
2019-06-07T13:30:55.346Z,98624.44
2019-06-07T13:36:00.819Z,98625.12
2019-06-07T13:41:05.999Z,98611.12
2019-06-07T13:46:13.028Z,98598.67
2019-06-07T13:51:19.190Z,98599.97
2019-06-07T13:56:26.074Z,98604.44
2019-06-07T14:01:32.410Z,98595.52
2019-06-07T14:06:37.837Z,98594.55
2019-06-07T14:11:50.439Z,98586.54
2019-06-07T14:16:51.990Z,98577.58
2019-06-07T14:21:57.520Z,98561.50
2019-06-07T14:27:09.000Z,98557.30
2019-06-07T14:32:14.249Z,98551.81
2019-06-07T14:37:19.498Z,98544.11
2019-06-07T14:42:25.375Z,98541.58
2019-06-07T14:47:32.009Z,98528.58
2019-06-07T14:52:37.371Z,98527.80
2019-06-07T14:57:44.133Z,98528.78
2019-06-07T15:02:50.693Z,98535.19
2019-06-07T15:07:56.145Z,98524.13
2019-06-07T15:13:01.408Z,98513.39
2019-06-07T15:18:07.612Z,98517.89
2019-06-07T15:23:13.768Z,98524.81
2019-06-07T15:28:19.295Z,98515.20
2019-06-07T15:33:24.501Z,98509.20
2019-06-07T15:38:31.039Z,98504.34
2019-06-07T15:43:37.397Z,98498.50
2019-06-07T15:48:45.015Z,98497.11
2019-06-07T15:53:50.199Z,98498.13
2019-06-07T15:58:55.468Z,98500.69
2019-06-07T16:04:00.754Z,98494.89
2019-06-07T16:09:08.366Z,98491.80
2019-06-07T16:14:14.915Z,98492.75
2019-06-07T16:19:20.117Z,98494.84
2019-06-07T16:24:25.259Z,98501.57
2019-06-07T16:29:30.556Z,98501.28
2019-06-07T16:34:37.811Z,98491.59
2019-06-07T16:39:42.794Z,98494.25
2019-06-07T16:44:50.420Z,98487.45
2019-06-07T16:49:55.614Z,98484.02
2019-06-07T16:55:01.164Z,98485.41
2019-06-07T17:00:07.354Z,98481.23
2019-06-07T17:05:14.219Z,98481.27
2019-06-07T17:10:20.046Z,98470.78
2019-06-07T17:15:28.671Z,98486.05
2019-06-07T17:20:33.828Z,98473.17
2019-06-07T17:25:39.509Z,98477.23
2019-06-07T17:30:46.094Z,98475.73
2019-06-07T17:35:52.381Z,98470.55
2019-06-07T17:40:57.613Z,98472.47
2019-06-07T17:46:02.812Z,98470.33
2019-06-07T17:51:09.111Z,98474.28
2019-06-07T17:56:14.521Z,98460.64
2019-06-07T18:01:21.758Z,98454.67
2019-06-07T18:06:27.161Z,98463.64
2019-06-07T18:11:32.524Z,98461.15
2019-06-07T18:16:38.043Z,98456.09
2019-06-07T18:21:44.883Z,98457.28
2019-06-07T18:26:50.546Z,98452.21
2019-06-07T18:31:56.269Z,98458.34
2019-06-07T18:37:01.532Z,98456.35
2019-06-07T18:42:06.861Z,98453.83
2019-06-07T18:47:12.193Z,98449.67
2019-06-07T18:52:21.313Z,98441.16
2019-06-07T18:57:26.737Z,98442.55
2019-06-07T19:02:31.927Z,98445.34
2019-06-07T19:07:37.137Z,98432.89
2019-06-07T19:12:43.434Z,98427.78
2019-06-07T19:17:49.728Z,98446.09
2019-06-07T19:22:56.382Z,98443.16
2019-06-07T19:28:01.859Z,98444.65
2019-06-07T19:33:07.351Z,98451.16
2019-06-07T19:38:12.591Z,98453.37
2019-06-07T19:43:17.786Z,98456.27
2019-06-07T19:48:22.998Z,98458.09
2019-06-07T19:53:28.322Z,98455.02
2019-06-07T19:58:33.848Z,98444.11
2019-06-07T20:03:40.010Z,98448.75
2019-06-07T20:08:45.304Z,98453.41
2019-06-07T20:13:50.754Z,98469.45
2019-06-07T20:18:56.280Z,98477.50
2019-06-07T20:24:17.629Z,98460.79
2019-06-07T20:29:24.818Z,98452.54
2019-06-07T20:34:16.671Z,98446.78
2019-06-07T20:39:22.235Z,98435.36
2019-06-07T20:44:27.749Z,98431.91
2019-06-07T20:49:33.128Z,98424.53
2019-06-07T20:54:38.264Z,98443.34
2019-06-07T20:59:43.567Z,98453.09
2019-06-07T21:04:48.818Z,98455.08
2019-06-07T21:09:54.124Z,98451.49
2019-06-07T21:15:02.141Z,98441.87
2019-06-07T21:20:08.147Z,98444.19
2019-06-07T21:25:13.966Z,98444.15
2019-06-07T21:30:19.250Z,98436.77
2019-06-07T21:35:26.102Z,98443.34
2019-06-07T21:40:33.097Z,98442.41
2019-06-07T21:45:38.722Z,98442.31
2019-06-07T21:50:46.745Z,98433.89
2019-06-07T21:55:51.989Z,98441.73
2019-06-07T22:01:23.422Z,98441.58
2019-06-07T22:06:28.535Z,98435.11
2019-06-07T22:11:34.165Z,98441.30
2019-06-07T22:16:40.448Z,98453.84
2019-06-07T22:21:59.248Z,98454.66
2019-06-07T22:26:52.950Z,98456.74
2019-06-07T22:31:58.863Z,98454.14
2019-06-07T22:37:05.092Z,98473.12
2019-06-07T22:42:11.972Z,98472.55
2019-06-07T22:47:18.316Z,98471.07
2019-06-07T22:52:23.568Z,98456.61
2019-06-07T22:57:30.765Z,98455.40
2019-06-07T23:02:36.084Z,98448.58
2019-06-07T23:07:41.347Z,98439.72
2019-06-07T23:12:46.574Z,98439.98
2019-06-07T23:17:51.908Z,98436.66
2019-06-07T23:22:57.188Z,98442.06
2019-06-07T23:28:02.364Z,98448.48
2019-06-07T23:33:07.905Z,98465.09
2019-06-07T23:38:13.257Z,98475.58
2019-06-07T23:43:19.620Z,98483.42
2019-06-07T23:48:25.031Z,98493.27
2019-06-07T23:53:30.285Z,98510.08
2019-06-07T23:58:35.441Z,98533.24
